Time;durP1;ratioP1;P1;durP2;ratioP2;P2;SDS_P1;SDS_P2;PMS_P1;PMS_P2;Temp;Humidity;BMP_temperature;BMP_pressure;BME280_temperature;BME280_humidity;BME280_pressure;Samples;Min_cycle;Max_cycle;Signal;HPM_P1;HPM_P2
2023/09/11 00:00:19;;;;;;;21.75;16.60;;;;;;;24.39;65.70;101283.75;5048208;28;20052;-71
2023/09/11 00:02:45;;;;;;;20.77;15.98;;;;;;;24.46;65.26;101273.22;5045313;28;20029;-71
2023/09/11 00:05:10;;;;;;;23.33;15.07;;;;;;;24.52;65.32;101270.78;5047274;28;20416;-71
2023/09/11 00:07:36;;;;;;;20.08;14.65;;;;;;;24.53;65.55;101271.63;5049742;28;20024;-71
2023/09/11 00:10:01;;;;;;;15.52;13.93;;;;;;;24.57;64.74;101265.81;5050685;28;20044;-71
2023/09/11 00:12:26;;;;;;;19.58;14.88;;;;;;;24.53;64.46;101264.41;5047400;28;20487;-71
2023/09/11 00:14:51;;;;;;;15.27;13.32;;;;;;;24.48;64.47;101257.69;5049499;28;21482;-71
2023/09/11 00:17:17;;;;;;;18.45;14.18;;;;;;;24.50;64.63;101258.44;5047279;28;21374;-71
2023/09/11 00:19:42;;;;;;;17.95;13.23;;;;;;;24.49;64.91;101256.72;5046411;28;20037;-71
2023/09/11 00:22:07;;;;;;;16.67;13.87;;;;;;;24.50;64.82;101255.72;5047229;28;20051;-71
2023/09/11 00:24:33;;;;;;;17.25;14.48;;;;;;;24.48;65.45;101258.56;5049033;28;20286;-71
2023/09/11 00:26:58;;;;;;;18.88;14.68;;;;;;;24.47;65.60;101258.69;5048997;28;20163;-71
2023/09/11 00:29:23;;;;;;;16.20;14.43;;;;;;;24.48;65.15;101252.28;5053716;28;20033;-71
2023/09/11 00:31:48;;;;;;;15.53;13.83;;;;;;;24.47;64.88;101258.69;5049042;28;20112;-71
2023/09/11 00:34:14;;;;;;;23.00;16.37;;;;;;;24.24;65.86;101256.22;5054787;28;20302;-71
2023/09/11 00:36:39;;;;;;;20.60;14.68;;;;;;;24.30;66.09;101257.53;5051854;28;20766;-70
2023/09/11 00:39:04;;;;;;;15.13;13.63;;;;;;;24.12;66.76;101247.41;5051983;28;20036;-69
2023/09/11 00:41:29;;;;;;;22.13;12.95;;;;;;;24.17;66.11;101253.25;5054394;28;20025;-70
2023/09/11 00:43:55;;;;;;;18.48;14.35;;;;;;;24.18;65.83;101254.09;5054805;28;20124;-69
2023/09/11 00:46:20;;;;;;;16.33;14.00;;;;;;;24.14;66.41;101261.59;5042649;28;20017;-69
2023/09/11 00:48:45;;;;;;;14.82;12.60;;;;;;;24.21;65.72;101251.13;5045553;28;20298;-70
2023/09/11 00:51:11;;;;;;;17.23;13.82;;;;;;;24.12;66.22;101250.09;5055361;28;20017;-70
2023/09/11 00:53:37;;;;;;;14.98;12.93;;;;;;;24.04;66.68;101251.78;5047490;28;20468;-70
2023/09/11 00:56:02;;;;;;;18.23;15.43;;;;;;;23.86;67.52;101252.44;5042212;28;20032;-70
2023/09/11 00:58:29;;;;;;;19.73;14.80;;;;;;;23.79;67.45;101245.91;5048885;28;20023;-70
2023/09/11 01:00:54;;;;;;;16.17;14.48;;;;;;;23.80;67.18;101247.59;5053137;28;20033;-70
2023/09/11 01:03:20;;;;;;;18.60;14.43;;;;;;;23.82;66.37;101245.59;5045131;28;20361;-70
2023/09/11 01:05:46;;;;;;;14.82;13.00;;;;;;;23.79;66.53;101251.31;5044003;28;20029;-70
2023/09/11 01:08:11;;;;;;;18.25;14.52;;;;;;;23.55;68.41;101245.31;5044517;28;20464;-70
2023/09/11 01:10:37;;;;;;;22.08;16.42;;;;;;;23.49;68.68;101245.88;5042440;28;20037;-70
2023/09/11 01:15:42;;;;;;;18.90;14.98;;;;;;;23.41;68.76;101244.72;5031804;28;20166;-76
2023/09/11 01:18:18;;;;;;;;;;;;;;;23.75;65.60;101243.63;5010164;28;20052;-76
2023/09/11 01:21:05;;;;;;;17.48;15.38;;;;;;;23.63;66.68;101243.66;5031986;28;19912;-76
2023/09/11 01:23:50;;;;;;;17.50;15.70;;;;;;;23.48;67.58;101245.03;5042701;28;20041;-75
2023/09/11 01:26:25;;;;;;;19.85;15.38;;;;;;;23.43;68.11;101236.50;5035068;28;20024;-75
2023/09/11 01:29:05;;;;;;;19.08;16.33;;;;;;;23.28;68.48;101249.50;5024571;28;20414;-75
2023/09/11 01:31:32;;;;;;;18.70;16.02;;;;;;;23.11;69.70;101247.38;5029618;28;20039;-75
2023/09/11 01:34:01;;;;;;;21.83;15.73;;;;;;;23.07;69.46;101245.94;5029795;28;20071;-75
2023/09/11 01:36:27;;;;;;;17.90;15.20;;;;;;;22.99;70.08;101238.53;5030551;28;20033;-75
2023/09/11 01:38:53;;;;;;;19.88;14.98;;;;;;;22.97;70.31;101239.63;5035296;28;20147;-76
2023/09/11 01:41:19;;;;;;;20.30;15.35;;;;;;;23.18;69.27;101243.19;5017506;28;20493;-76
2023/09/11 01:43:46;;;;;;;17.65;15.35;;;;;;;23.25;69.10;101235.41;5017129;28;20495;-75
2023/09/11 01:46:12;;;;;;;18.63;14.95;;;;;;;23.21;69.54;101239.34;5034349;28;20029;-75
2023/09/11 01:48:40;;;;;;;20.30;14.27;;;;;;;23.31;68.51;101234.84;5029130;28;20029;-75
2023/09/11 01:51:07;;;;;;;17.98;15.18;;;;;;;23.33;68.91;101241.00;5034264;28;20112;-75
2023/09/11 01:53:32;;;;;;;19.98;16.05;;;;;;;23.30;69.03;101236.69;5036807;28;20463;-75
2023/09/11 01:55:58;;;;;;;20.52;15.48;;;;;;;23.36;68.51;101230.78;5034402;28;20047;-75
2023/09/11 01:58:24;;;;;;;19.65;16.45;;;;;;;23.33;68.83;101231.03;5033467;28;20017;-75
2023/09/11 02:00:49;;;;;;;19.08;16.52;;;;;;;23.15;69.70;101229.97;5032931;28;20028;-76
2023/09/11 02:03:16;;;;;;;18.48;16.58;;;;;;;22.97;70.11;101235.09;5013835;28;20037;-75
2023/09/11 02:05:42;;;;;;;17.05;14.77;;;;;;;22.84;70.95;101229.88;5040941;28;20474;-75
2023/09/11 02:08:07;;;;;;;19.33;15.45;;;;;;;22.78;70.75;101230.41;5036491;28;20040;-75
2023/09/11 02:10:32;;;;;;;20.10;14.57;;;;;;;22.88;70.41;101225.91;5011545;28;20044;-75
2023/09/11 02:12:57;;;;;;;18.30;14.45;;;;;;;22.76;70.79;101224.28;5028624;28;20025;-75
2023/09/11 02:15:23;;;;;;;18.23;15.40;;;;;;;22.69;71.25;101227.63;5010287;28;20495;-77
2023/09/11 02:17:48;;;;;;;18.38;16.38;;;;;;;22.55;71.72;101223.41;5029587;28;20279;-77
2023/09/11 02:20:13;;;;;;;16.55;14.70;;;;;;;22.58;71.43;101223.16;5045218;28;20029;-77
2023/09/11 02:22:39;;;;;;;17.45;14.73;;;;;;;22.59;71.64;101216.78;5014232;28;20025;-77
2023/09/11 02:25:04;;;;;;;21.42;17.10;;;;;;;22.40;71.82;101221.03;5031839;28;20018;-77
2023/09/11 02:27:30;;;;;;;18.10;16.10;;;;;;;22.42;72.08;101210.97;5030267;28;20716;-77
2023/09/11 02:29:55;;;;;;;17.33;14.98;;;;;;;22.47;71.07;101207.88;5033652;28;20036;-77
2023/09/11 02:32:20;;;;;;;17.67;14.50;;;;;;;22.55;70.91;101210.78;5029947;28;20501;-77
2023/09/11 02:34:45;;;;;;;17.67;15.55;;;;;;;22.45;71.74;101200.94;5028144;28;20052;-77
2023/09/11 02:37:11;;;;;;;16.73;14.33;;;;;;;22.32;72.38;101210.03;5024760;28;20132;-77
2023/09/11 02:39:38;;;;;;;17.65;14.75;;;;;;;22.30;72.11;101214.72;5028913;28;21096;-77
2023/09/11 02:42:03;;;;;;;18.02;14.98;;;;;;;22.25;72.27;101208.84;5027973;28;20024;-77
2023/09/11 02:44:28;;;;;;;20.75;15.23;;;;;;;22.12;72.50;101209.00;5038519;28;20436;-77
2023/09/11 02:46:54;;;;;;;19.30;14.85;;;;;;;22.09;72.41;101211.91;5035644;28;20018;-77
2023/09/11 02:49:19;;;;;;;19.73;14.32;;;;;;;22.20;71.75;101211.06;5029700;28;20040;-77
2023/09/11 02:51:44;;;;;;;20.17;16.03;;;;;;;22.15;72.28;101218.69;5029520;28;20115;-77
2023/09/11 02:54:10;;;;;;;19.65;15.10;;;;;;;22.07;72.36;101219.28;5018435;28;20958;-77
2023/09/11 02:56:37;;;;;;;19.40;15.00;;;;;;;22.08;72.46;101206.66;5036894;28;20029;-77
2023/09/11 02:59:03;;;;;;;20.80;17.48;;;;;;;22.02;73.47;101204.50;5034648;28;20033;-77
2023/09/11 03:01:28;;;;;;;17.67;14.63;;;;;;;22.05;72.58;101206.91;5029577;28;20055;-77
2023/09/11 03:03:53;;;;;;;18.10;15.48;;;;;;;22.09;72.24;101202.97;5032805;28;20028;-76
2023/09/11 03:06:19;;;;;;;19.38;15.30;;;;;;;22.13;72.31;101204.47;5039963;28;20437;-77
2023/09/11 03:08:44;;;;;;;17.52;15.68;;;;;;;22.04;72.84;101202.50;5017887;28;20037;-77
2023/09/11 03:11:10;;;;;;;18.20;16.27;;;;;;;21.99;72.86;101207.41;5039012;28;20036;-77
2023/09/11 03:13:36;;;;;;;18.83;15.15;;;;;;;22.00;72.36;101204.59;5030735;28;20144;-76
2023/09/11 03:16:08;;;;;;;21.98;15.43;;;;;;;22.04;72.06;101205.19;5028423;28;20549;-77
2023/09/11 03:18:33;;;;;;;20.52;14.70;;;;;;;22.04;71.42;101184.50;5033400;28;20155;-77
2023/09/11 03:20:58;;;;;;;18.33;15.02;;;;;;;21.96;72.58;101186.97;5034311;28;20119;-77
2023/09/11 03:23:24;;;;;;;17.27;13.88;;;;;;;21.94;71.89;101183.56;5035603;28;20143;-77
2023/09/11 03:25:49;;;;;;;16.40;13.85;;;;;;;21.91;71.44;101184.66;5034205;28;20033;-77
2023/09/11 03:28:14;;;;;;;17.37;14.60;;;;;;;21.93;73.13;101186.41;5032552;28;20023;-77
2023/09/11 03:30:39;;;;;;;16.20;14.40;;;;;;;21.92;71.80;101177.47;5035101;28;20612;-77
2023/09/11 03:33:05;;;;;;;17.00;14.20;;;;;;;21.88;71.43;101170.63;5024988;28;20021;-77
2023/09/11 03:35:30;;;;;;;18.27;15.77;;;;;;;21.71;73.41;101181.91;5028122;28;20029;-76
2023/09/11 03:37:55;;;;;;;17.65;15.32;;;;;;;21.62;73.82;101172.75;5038044;28;20499;-75
2023/09/11 03:40:22;;;;;;;24.90;16.17;;;;;;;21.52;74.20;101179.88;5031485;28;20049;-76
2023/09/11 03:42:48;;;;;;;16.20;14.18;;;;;;;21.51;73.48;101176.31;5023420;28;20518;-76
2023/09/11 03:45:13;;;;;;;19.50;15.75;;;;;;;21.46;73.98;101169.59;5035289;28;20050;-77
2023/09/11 03:47:38;;;;;;;17.45;14.73;;;;;;;21.47;73.30;101171.31;5035128;28;20537;-77
2023/09/11 03:50:04;;;;;;;19.23;15.10;;;;;;;21.52;72.73;101166.41;5029574;28;20113;-77
2023/09/11 03:52:30;;;;;;;20.98;15.90;;;;;;;21.47;73.74;101166.78;5032416;28;20102;-77
2023/09/11 03:54:55;;;;;;;16.70;14.85;;;;;;;21.45;73.13;101157.09;5030634;28;20029;-77
2023/09/11 03:57:20;;;;;;;19.88;16.83;;;;;;;21.41;74.46;101150.28;5040791;28;20068;-77
2023/09/11 03:59:45;;;;;;;16.63;14.82;;;;;;;21.36;73.50;101154.22;5010712;28;20539;-77
2023/09/11 04:02:11;;;;;;;22.08;16.08;;;;;;;21.40;73.25;101152.09;5031570;28;20525;-77
2023/09/11 04:04:36;;;;;;;19.40;16.60;;;;;;;21.35;74.51;101155.16;5029575;28;20079;-77
2023/09/11 04:07:02;;;;;;;17.42;15.60;;;;;;;21.30;73.52;101151.09;5034794;28;20100;-77
2023/09/11 04:09:30;;;;;;;22.65;17.15;;;;;;;21.31;73.96;101142.09;5026837;28;20045;-77
2023/09/11 04:11:56;;;;;;;19.05;16.35;;;;;;;21.30;73.72;101148.41;5029062;28;20029;-77
2023/09/11 04:14:21;;;;;;;18.48;15.52;;;;;;;21.29;74.07;101139.50;5029469;28;20515;-77
2023/09/11 04:16:46;;;;;;;19.35;15.32;;;;;;;21.29;74.14;101144.03;5030728;28;20116;-77
2023/09/11 04:19:12;;;;;;;22.02;15.95;;;;;;;21.28;73.90;101142.31;5028199;28;20049;-77
2023/09/11 04:21:37;;;;;;;21.17;16.20;;;;;;;21.30;74.31;101143.03;5031575;28;20025;-77
2023/09/11 04:24:03;;;;;;;23.58;17.02;;;;;;;21.30;74.40;101132.28;5030770;28;20052;-77
2023/09/11 04:26:29;;;;;;;19.63;14.88;;;;;;;21.36;74.03;101127.31;5036981;28;20383;-77
2023/09/11 04:28:55;;;;;;;18.50;15.63;;;;;;;21.35;74.04;101130.09;5039069;28;20025;-77
2023/09/11 04:31:20;;;;;;;19.98;15.45;;;;;;;21.33;74.23;101135.63;5025990;28;20031;-77
2023/09/11 04:33:45;;;;;;;20.63;15.02;;;;;;;21.36;74.05;101131.84;5025619;28;20035;-77
2023/09/11 04:36:11;;;;;;;20.07;16.37;;;;;;;21.28;74.52;101132.41;5032643;28;20703;-77
2023/09/11 04:38:37;;;;;;;18.77;16.50;;;;;;;21.31;73.68;101128.63;5032183;28;20352;-77
2023/09/11 04:41:02;;;;;;;19.40;17.17;;;;;;;21.21;74.57;101133.88;5019273;28;20119;-78
2023/09/11 04:43:27;;;;;;;17.15;14.02;;;;;;;21.20;73.54;101126.78;5025584;28;20470;-77
2023/09/11 04:45:52;;;;;;;19.13;15.80;;;;;;;21.25;73.73;101138.03;5028419;28;20029;-77
2023/09/11 04:48:18;;;;;;;22.58;16.00;;;;;;;21.21;74.45;101133.88;5018345;28;20481;-77
2023/09/11 04:50:43;;;;;;;17.70;14.98;;;;;;;21.12;74.27;101130.13;5021026;28;20184;-77
2023/09/11 04:53:08;;;;;;;20.65;15.35;;;;;;;21.11;73.76;101139.13;5026798;28;20061;-77
2023/09/11 04:55:34;;;;;;;19.23;15.68;;;;;;;21.08;73.32;101138.53;5022168;28;20036;-77
2023/09/11 04:57:59;;;;;;;18.45;14.18;;;;;;;21.11;72.58;101143.66;5022954;28;20383;-77
2023/09/11 05:00:26;;;;;;;19.50;15.18;;;;;;;21.07;73.05;101140.34;5041307;28;20030;-77
2023/09/11 05:02:51;;;;;;;18.40;15.45;;;;;;;21.01;73.66;101138.16;5028086;28;20069;-77
2023/09/11 05:05:16;;;;;;;18.98;16.42;;;;;;;20.86;74.22;101137.53;5018783;28;20053;-76
2023/09/11 05:07:42;;;;;;;15.52;13.95;;;;;;;20.92;75.20;101141.56;5031272;28;20475;-76
2023/09/11 05:10:08;;;;;;;20.40;15.25;;;;;;;20.84;75.78;101139.50;5014622;28;20479;-76
2023/09/11 05:12:34;;;;;;;21.98;15.30;;;;;;;20.83;75.06;101136.91;5034851;28;20017;-76
2023/09/11 05:14:59;;;;;;;19.95;16.17;;;;;;;20.82;75.70;101140.59;5034083;28;20087;-76
2023/09/11 05:17:24;;;;;;;18.70;14.95;;;;;;;20.89;74.93;101141.84;5026368;28;20033;-77
2023/09/11 05:19:50;;;;;;;20.13;15.93;;;;;;;20.94;74.25;101142.31;5032327;28;20371;-76
2023/09/11 05:22:15;;;;;;;18.38;15.18;;;;;;;20.96;74.33;101147.56;5033677;28;20491;-76
2023/09/11 05:24:40;;;;;;;16.83;15.13;;;;;;;20.89;75.10;101147.22;5034965;28;20053;-76
2023/09/11 05:27:05;;;;;;;20.25;15.00;;;;;;;20.94;74.60;101144.13;5036591;28;20033;-76
2023/09/11 05:29:31;;;;;;;17.13;14.60;;;;;;;20.92;75.06;101143.41;5034594;28;20068;-76
2023/09/11 05:31:56;;;;;;;18.08;14.98;;;;;;;20.95;75.38;101148.56;5033029;28;20345;-76
2023/09/11 05:34:21;;;;;;;18.70;15.07;;;;;;;20.98;74.88;101145.59;5029466;28;20493;-76
2023/09/11 05:36:47;;;;;;;17.20;14.82;;;;;;;21.07;74.54;101145.72;5035044;28;20368;-76
2023/09/11 05:39:12;;;;;;;18.38;14.52;;;;;;;21.06;74.61;101151.22;5031808;28;20044;-76
2023/09/11 05:41:37;;;;;;;18.52;14.70;;;;;;;21.09;74.24;101151.84;5036058;28;20706;-76
2023/09/11 05:44:03;;;;;;;19.92;15.80;;;;;;;21.08;75.14;101160.06;5033109;28;20029;-76
2023/09/11 05:46:29;;;;;;;19.42;14.27;;;;;;;21.07;75.32;101156.47;5033232;28;20059;-76
2023/09/11 05:48:54;;;;;;;18.75;14.00;;;;;;;21.19;74.49;101160.03;5032901;28;20025;-78
2023/09/11 05:51:20;;;;;;;18.30;15.63;;;;;;;21.23;74.33;101164.19;5035303;28;20025;-76
2023/09/11 05:53:45;;;;;;;16.75;13.77;;;;;;;21.26;74.11;101168.47;5027942;28;20124;-76
2023/09/11 05:56:11;;;;;;;16.52;14.75;;;;;;;21.38;73.89;101163.00;5034646;28;20041;-76
2023/09/11 05:58:37;;;;;;;16.33;13.82;;;;;;;21.38;73.58;101172.91;5032937;28;20384;-76
2023/09/11 06:01:03;;;;;;;19.33;14.15;;;;;;;21.41;73.79;101166.44;5030510;28;20029;-76
2023/09/11 06:03:29;;;;;;;16.85;13.32;;;;;;;21.42;73.24;101169.00;5029304;28;20030;-76
2023/09/11 06:05:55;;;;;;;16.23;13.70;;;;;;;21.39;73.87;101170.06;5033340;28;20025;-76
2023/09/11 06:08:20;;;;;;;15.32;13.43;;;;;;;21.48;73.88;101175.69;5029089;28;20187;-76
2023/09/11 06:10:46;;;;;;;16.00;12.75;;;;;;;21.62;72.92;101180.81;5028857;28;20029;-76
2023/09/11 06:13:11;;;;;;;15.90;12.27;;;;;;;21.66;72.38;101176.91;5018044;28;20033;-76
2023/09/11 06:15:36;;;;;;;14.50;11.63;;;;;;;21.73;72.30;101178.13;5027302;28;20045;-76
2023/09/11 06:18:03;;;;;;;16.85;11.73;;;;;;;21.76;74.23;101177.00;5031302;28;20029;-77
2023/09/11 06:20:28;;;;;;;12.43;10.48;;;;;;;21.79;72.04;101183.00;5031153;28;20030;-77
2023/09/11 06:22:54;;;;;;;16.20;10.10;;;;;;;21.84;71.61;101182.63;5028267;28;20025;-77
2023/09/11 06:25:20;;;;;;;12.25;10.88;;;;;;;21.97;70.41;101186.03;5034732;28;20018;-77
2023/09/11 06:27:45;;;;;;;15.50;10.50;;;;;;;22.05;72.20;101185.38;5032088;28;20132;-77
2023/09/11 06:30:10;;;;;;;13.32;10.25;;;;;;;22.04;71.03;101181.81;5032726;28;20037;-77
2023/09/11 06:32:36;;;;;;;17.20;9.85;;;;;;;22.13;71.20;101183.78;5032172;28;20078;-77
2023/09/11 06:35:04;;;;;;;15.15;10.45;;;;;;;22.19;69.92;101190.50;5031514;28;20017;-77
2023/09/11 06:37:29;;;;;;;15.30;10.05;;;;;;;22.24;69.64;101177.50;5030742;28;20025;-77
2023/09/11 06:39:55;;;;;;;19.42;10.20;;;;;;;22.41;68.67;101184.16;5034251;28;20479;-76
2023/09/11 06:42:21;;;;;;;14.60;9.52;;;;;;;22.44;67.79;101177.66;5029175;28;20025;-77
2023/09/11 06:44:47;;;;;;;12.15;8.88;;;;;;;22.52;67.52;101177.84;5030477;28;20468;-77
2023/09/11 06:47:12;;;;;;;14.32;10.23;;;;;;;22.59;67.89;101177.22;5031836;28;20501;-77
2023/09/11 06:49:37;;;;;;;17.65;9.48;;;;;;;22.66;67.42;101182.91;5029256;28;20025;-77
2023/09/11 06:52:03;;;;;;;15.90;10.15;;;;;;;22.73;67.21;101185.97;5033851;28;20033;-77
2023/09/11 06:54:28;;;;;;;15.35;10.25;;;;;;;22.84;66.48;101185.88;5028502;28;20018;-77
2023/09/11 06:56:54;;;;;;;13.98;9.63;;;;;;;22.67;66.80;101177.41;5025531;28;20021;-77
2023/09/11 06:59:19;;;;;;;13.43;10.80;;;;;;;22.79;66.87;101174.63;5026622;28;20480;-77
2023/09/11 07:01:45;;;;;;;18.70;10.13;;;;;;;22.84;66.81;101185.88;5029825;28;20033;-77
2023/09/11 07:04:11;;;;;;;13.70;10.90;;;;;;;22.90;66.99;101180.00;5009616;28;20055;-77
2023/09/11 07:06:40;;;;;;;14.93;10.93;;;;;;;22.99;66.93;101183.72;5012998;28;20071;-76
2023/09/11 07:09:07;;;;;;;16.67;11.63;;;;;;;23.06;66.67;101188.47;5030269;28;20038;-77
2023/09/11 07:11:32;;;;;;;15.20;13.05;;;;;;;23.13;66.31;101183.41;5033341;28;20040;-76
2023/09/11 07:13:58;;;;;;;15.25;11.55;;;;;;;23.16;66.06;101181.25;5022796;28;20452;-71
2023/09/11 07:16:23;;;;;;;16.58;11.63;;;;;;;23.16;66.15;101183.97;5024743;28;20468;-74
2023/09/11 07:18:49;;;;;;;15.45;11.27;;;;;;;23.17;66.16;101174.91;5033501;28;20142;-74
2023/09/11 07:21:14;;;;;;;12.40;10.25;;;;;;;23.27;66.28;101169.53;5024351;28;20033;-74
2023/09/11 07:23:39;;;;;;;17.83;10.20;;;;;;;23.39;65.19;101170.28;5034395;28;20021;-74
2023/09/11 07:26:05;;;;;;;14.20;10.38;;;;;;;23.41;64.86;101166.47;5026996;28;20025;-74
2023/09/11 07:28:30;;;;;;;13.02;10.27;;;;;;;23.52;64.37;101170.06;5031194;28;20029;-74
2023/09/11 07:30:55;;;;;;;14.35;11.32;;;;;;;23.60;64.11;101175.63;5030988;28;20029;-75
2023/09/11 07:33:21;;;;;;;14.52;10.90;;;;;;;23.64;64.57;101177.06;5032335;28;20029;-75
2023/09/11 07:35:46;;;;;;;15.13;11.02;;;;;;;23.75;64.54;101176.97;5033964;28;20052;-75
2023/09/11 07:38:12;;;;;;;17.65;11.48;;;;;;;23.86;63.55;101184.09;5030865;28;20079;-75
2023/09/11 07:40:38;;;;;;;15.65;10.68;;;;;;;24.03;64.04;101178.00;5032815;28;20044;-75
2023/09/11 07:43:04;;;;;;;19.45;11.57;;;;;;;24.07;62.89;101178.59;5029245;28;20029;-74
2023/09/11 07:45:29;;;;;;;15.23;11.63;;;;;;;24.17;62.80;101182.13;5024980;28;20017;-75
2023/09/11 07:47:54;;;;;;;14.60;11.43;;;;;;;24.20;62.46;101187.25;5037336;28;20044;-74
2023/09/11 07:50:20;;;;;;;19.63;10.77;;;;;;;24.40;62.01;101185.44;5025546;28;20031;-75
2023/09/11 07:52:45;;;;;;;18.73;11.95;;;;;;;24.72;61.01;101192.41;5028175;28;20089;-75
2023/09/11 07:55:11;;;;;;;16.90;11.93;;;;;;;24.96;61.43;101191.91;5035475;28;20180;-75
2023/09/11 07:57:40;;;;;;;14.68;13.07;;;;;;;25.22;59.77;101189.44;5030084;28;20798;-75
2023/09/11 08:00:06;;;;;;;17.17;13.00;;;;;;;25.28;59.63;101196.97;5031834;28;20605;-75
2023/09/11 08:02:33;;;;;;;16.15;13.40;;;;;;;25.47;58.02;101191.47;5030298;28;20075;-75
2023/09/11 08:04:58;;;;;;;22.58;15.07;;;;;;;25.75;57.81;101203.16;5025778;28;20053;-75
2023/09/11 08:07:24;;;;;;;17.85;14.25;;;;;;;25.89;57.07;101210.78;5027831;28;20021;-75
2023/09/11 08:09:52;;;;;;;22.23;15.23;;;;;;;26.11;58.54;101219.47;5031517;28;20064;-75
2023/09/11 08:12:17;;;;;;;19.48;14.68;;;;;;;26.18;57.25;101221.44;5033807;28;20067;-75
2023/09/11 08:14:44;;;;;;;19.48;15.35;;;;;;;26.44;56.40;101215.28;5035015;28;20107;-75
2023/09/11 08:17:09;;;;;;;16.80;13.57;;;;;;;26.80;55.47;101221.50;5025050;28;20033;-75
2023/09/11 08:19:34;;;;;;;20.85;15.18;;;;;;;26.98;56.21;101217.91;5024871;28;20056;-74
2023/09/11 08:22:00;;;;;;;23.83;16.50;;;;;;;27.13;55.09;101210.91;5030987;28;20112;-75
2023/09/11 08:24:25;;;;;;;20.83;15.63;;;;;;;27.32;54.06;101220.69;5033295;28;20291;-75
2023/09/11 08:26:50;;;;;;;22.23;16.58;;;;;;;27.52;52.85;101215.88;5040140;28;20025;-75
2023/09/11 08:29:17;;;;;;;20.85;16.50;;;;;;;27.47;53.55;101210.94;5028768;28;20084;-75
2023/09/11 08:31:42;;;;;;;21.08;16.88;;;;;;;27.57;54.00;101211.66;5035447;28;20068;-75
2023/09/11 08:34:08;;;;;;;21.92;16.23;;;;;;;27.90;53.72;101207.22;5038365;28;20021;-75
2023/09/11 08:36:33;;;;;;;20.02;16.63;;;;;;;28.21;51.46;101212.00;5025224;28;20090;-74
2023/09/11 08:38:59;;;;;;;23.67;17.33;;;;;;;28.52;51.34;101212.25;5032320;28;20025;-75
2023/09/11 08:41:25;;;;;;;23.42;17.05;;;;;;;28.32;51.36;101208.13;5026096;28;20036;-75
2023/09/11 08:43:51;;;;;;;20.08;17.20;;;;;;;28.63;50.84;101209.22;5030324;28;20029;-76
2023/09/11 08:46:17;;;;;;;25.10;16.85;;;;;;;29.23;50.10;101207.94;5036615;28;20025;-74
2023/09/11 08:48:48;;;;;;;22.83;17.00;;;;;;;29.68;49.10;101212.75;5040514;28;20396;-75
2023/09/11 08:51:53;;;;;;;24.80;16.17;;;;;;;30.10;48.63;101216.94;5034047;28;20044;-75
2023/09/11 08:54:24;;;;;;;23.75;17.02;;;;;;;30.31;46.56;101215.47;5029584;28;20060;-75
2023/09/11 08:56:50;;;;;;;18.35;16.05;;;;;;;30.64;49.61;101216.91;5032671;28;20061;-74
2023/09/11 08:59:17;;;;;;;24.80;18.27;;;;;;;31.24;44.24;101226.94;5037448;28;20033;-75
2023/09/11 09:01:43;;;;;;;18.17;15.82;;;;;;;31.21;44.17;101221.84;5026967;28;20026;-75
2023/09/11 09:04:11;;;;;;;19.25;17.20;;;;;;;31.30;46.10;101222.63;5034669;28;20021;-77
2023/09/11 09:06:37;;;;;;;21.63;16.15;;;;;;;31.68;43.58;101209.69;5019947;28;20040;-77
2023/09/11 09:09:03;;;;;;;22.00;16.00;;;;;;;31.81;43.15;101214.47;5031774;28;20037;-75
2023/09/11 09:11:28;;;;;;;22.30;16.20;;;;;;;31.35;43.57;101214.72;5027005;28;20035;-75
2023/09/11 09:13:55;;;;;;;18.80;15.10;;;;;;;31.40;43.49;101206.81;5038874;28;20083;-76
2023/09/11 09:16:20;;;;;;;20.33;16.60;;;;;;;32.14;42.29;101214.03;5030767;28;20025;-75
2023/09/11 09:18:49;;;;;;;24.80;14.85;;;;;;;32.37;42.14;101203.78;5031498;28;20036;-75
2023/09/11 09:21:15;;;;;;;18.02;16.13;;;;;;;32.25;42.66;101213.53;5034632;28;20427;-76
2023/09/11 09:23:41;;;;;;;18.50;15.65;;;;;;;32.70;40.90;101215.03;5034288;28;20021;-74
2023/09/11 09:26:08;;;;;;;22.77;15.47;;;;;;;33.52;39.99;101219.00;5028356;28;20079;-75
2023/09/11 09:28:34;;;;;;;17.35;14.02;;;;;;;34.26;38.52;101221.81;5023159;28;20292;-75
2023/09/11 09:31:00;;;;;;;18.42;13.02;;;;;;;34.89;36.71;101207.72;5029763;28;20021;-75
2023/09/11 09:33:26;;;;;;;17.60;12.45;;;;;;;35.31;35.80;101215.72;5033540;28;20029;-75
2023/09/11 09:35:51;;;;;;;21.25;13.32;;;;;;;35.23;35.74;101222.28;5029679;28;20095;-73
2023/09/11 09:38:20;;;;;;;17.13;13.82;;;;;;;35.27;36.13;101220.81;5036212;28;20472;-75
2023/09/11 09:40:46;;;;;;;19.23;13.95;;;;;;;35.49;35.32;101214.00;5029582;28;20095;-76
2023/09/11 09:43:15;;;;;;;19.23;13.20;;;;;;;35.99;35.18;101216.97;5037255;28;21434;-76
2023/09/11 09:45:44;;;;;;;19.02;16.17;;;;;;;35.01;34.94;101211.53;5026787;28;20025;-76
2023/09/11 09:48:11;;;;;;;18.35;14.23;;;;;;;35.64;34.14;101210.13;5039617;28;20063;-79
2023/09/11 09:50:57;;;;;;;16.80;12.98;;;;;;;36.39;34.86;101219.47;5029691;28;20594;-74
2023/09/11 09:53:33;;;;;;;14.43;12.30;;;;;;;35.94;33.54;101215.91;5029347;28;20094;-72
2023/09/11 09:56:03;;;;;;;15.25;12.35;;;;;;;36.56;32.23;101218.94;5027611;28;20431;-72
2023/09/11 09:58:30;;;;;;;14.30;11.98;;;;;;;37.10;32.00;101210.00;5031325;28;20031;-71
2023/09/11 10:01:13;;;;;;;17.33;11.07;;;;;;;37.39;32.84;101208.41;5006831;28;20037;-72
2023/09/11 10:03:42;;;;;;;19.45;11.73;;;;;;;37.39;31.00;101208.41;5020142;28;20503;-72
2023/09/11 10:06:16;;;;;;;18.70;12.77;;;;;;;37.47;31.33;101216.41;5027928;28;20032;-73
2023/09/11 10:08:42;;;;;;;14.25;11.85;;;;;;;37.91;29.49;101211.59;5026099;28;20120;-73
2023/09/11 10:11:07;;;;;;;18.33;11.85;;;;;;;38.25;29.38;101211.97;5026355;28;20183;-73
2023/09/11 10:13:35;;;;;;;18.40;13.47;;;;;;;37.82;30.74;101215.75;5036285;28;20542;-73
2023/09/11 10:16:02;;;;;;;14.07;11.65;;;;;;;37.86;30.33;101216.97;5028831;28;20377;-70
2023/09/11 10:18:30;;;;;;;48.17;12.93;;;;;;;38.24;29.82;101213.03;5031613;28;20026;-72
2023/09/11 10:20:57;;;;;;;19.75;10.75;;;;;;;38.24;29.86;101218.56;5032482;28;20103;-73
2023/09/11 10:23:23;;;;;;;18.48;11.90;;;;;;;38.09;29.37;101218.16;5025440;28;20567;-72
2023/09/11 10:25:56;;;;;;;15.77;11.07;;;;;;;38.35;29.76;101212.28;5030891;28;20021;-72
2023/09/11 10:28:33;;;;;;;15.02;11.98;;;;;;;38.27;30.96;101209.81;5036513;28;20033;-72
2023/09/11 10:31:31;;;;;;;15.75;10.52;;;;;;;38.67;30.55;101209.22;5025602;28;20028;-72
2023/09/11 10:34:00;;;;;;;14.15;11.48;;;;;;;38.19;30.08;101205.50;5013952;28;20060;-72
2023/09/11 10:36:30;;;;;;;15.18;12.90;;;;;;;38.06;30.25;101208.44;5027156;28;20472;-71
2023/09/11 10:38:58;;;;;;;15.23;12.40;;;;;;;37.79;30.25;101199.66;5038052;28;20021;-71
2023/09/11 10:41:24;;;;;;;14.38;10.88;;;;;;;37.98;29.60;101204.09;5027220;28;20021;-72
2023/09/11 10:43:50;;;;;;;14.85;10.57;;;;;;;38.04;29.87;101205.06;5019997;28;20287;-72
2023/09/11 10:46:22;;;;;;;13.55;10.40;;;;;;;37.97;30.42;101201.56;5026043;28;20029;-72
2023/09/11 10:48:48;;;;;;;12.93;9.38;;;;;;;38.24;29.83;101204.75;5032338;28;20055;-71
2023/09/11 10:51:14;;;;;;;14.48;9.93;;;;;;;38.08;29.90;101200.75;5020147;28;20581;-71
2023/09/11 10:53:40;;;;;;;14.23;10.38;;;;;;;37.70;30.15;101207.41;5030255;28;20173;-72
2023/09/11 10:56:06;;;;;;;9.93;8.77;;;;;;;37.68;30.10;101205.94;5030686;28;20033;-72
2023/09/11 10:58:32;;;;;;;15.85;10.88;;;;;;;37.58;29.98;101200.13;5033632;28;20112;-72
2023/09/11 11:00:58;;;;;;;12.73;9.05;;;;;;;36.98;31.62;101198.03;5027806;28;20108;-71
2023/09/11 11:03:28;;;;;;;12.73;8.65;;;;;;;36.95;32.12;101207.59;5027461;28;20116;-71
2023/09/11 11:05:54;;;;;;;12.25;8.48;;;;;;;37.17;30.61;101197.00;5021943;28;20032;-72
2023/09/11 11:08:19;;;;;;;12.93;8.15;;;;;;;37.25;29.73;101184.78;5027759;28;20029;-72